Hutchinson Municipal Airport Hutchinson US
ICAO: KHUT
IATA: HUT
Category: Medium
Scheduled Services: No

Elevation: 1543 ft
TransAlt. 18000 ft.

Airport Communications:
WICHITA APP DEP:125.5
ATIS:124.25
CTAF:118.5
GND:121.9
WICHITA RDO:122.05
TWR:118.5
UNICOM:122.95

KHUT Zoom In..

Runways:

(A) RW 04 length 6000 ft width 100 ft
---- / hdg 36

(B) RW 13 length 7004 ft width 100 ft
ILS 110.10 / hdg 132

(C) RW 17 length 4252 ft width 75 ft
---- / hdg 171

(D) RW 22 length 6000 ft width 100 ft
---- / hdg 216

(E) RW 31 length 7004 ft width 100 ft
---- / hdg 312

(F) RW 35 length 4252 ft width 75 ft
---- / hdg 351

Location; KHUT
Day. 26 / Time. 03.52 Zulu
* Altimeter: 29.84
* Temperature: 23° c. 73.4°f.
* Wind from: 180° Speed 05 kn.
Dewpoint: 19° c.
Visibility: 10 Statute Miles.
Clouds: Clear (automated report).

KHUT 260352Z AUTO 18005KT 10SM CLR 23/19 A2984 RMK AO2 SLP083 T02280194


Wind From 180°
Speed 05 kn.

 
 
jpsmedia.com for Web Design SOUNDCLOUD worldairports.se 2018   terms of use